sensor_id;sensor_type;location;lat;lon;timestamp;temperature;humidity
52669;DHT22;59898;52.786;6.892;2023-04-12T00:02:21;8.60;99.90
52669;DHT22;59898;52.786;6.892;2023-04-12T00:05:41;8.60;99.90
52669;DHT22;59898;52.786;6.892;2023-04-12T00:09:06;8.60;99.90
52669;DHT22;59898;52.786;6.892;2023-04-12T00:12:28;8.50;99.90
52669;DHT22;59898;52.786;6.892;2023-04-12T00:15:48;8.50;99.90
52669;DHT22;59898;52.786;6.892;2023-04-12T00:19:09;8.50;99.90
52669;DHT22;59898;52.786;6.892;2023-04-12T00:22:30;8.50;99.90
52669;DHT22;59898;52.786;6.892;2023-04-12T00:25:51;8.60;99.90
52669;DHT22;59898;52.786;6.892;2023-04-12T00:29:12;8.60;99.90
52669;DHT22;59898;52.786;6.892;2023-04-12T00:32:33;8.50;99.90
52669;DHT22;59898;52.786;6.892;2023-04-12T00:35:53;8.60;99.90
52669;DHT22;59898;52.786;6.892;2023-04-12T00:39:14;8.60;99.90
52669;DHT22;59898;52.786;6.892;2023-04-12T00:42:35;8.60;99.90
52669;DHT22;59898;52.786;6.892;2023-04-12T00:45:56;8.60;99.90
52669;DHT22;59898;52.786;6.892;2023-04-12T00:49:17;8.60;99.90
52669;DHT22;59898;52.786;6.892;2023-04-12T00:52:39;8.60;99.90
52669;DHT22;59898;52.786;6.892;2023-04-12T00:55:59;8.60;99.90
52669;DHT22;59898;52.786;6.892;2023-04-12T00:59:21;8.60;99.90
52669;DHT22;59898;52.786;6.892;2023-04-12T01:02:43;8.60;99.90
52669;DHT22;59898;52.786;6.892;2023-04-12T01:06:27;8.60;99.90
52669;DHT22;59898;52.786;6.892;2023-04-12T01:13:34;8.60;99.90
52669;DHT22;59898;52.786;6.892;2023-04-12T01:16:58;9.20;99.90
52669;DHT22;59898;52.786;6.892;2023-04-12T01:20:23;8.70;99.90
52669;DHT22;59898;52.786;6.892;2023-04-12T01:24:03;8.60;99.90
52669;DHT22;59898;52.786;6.892;2023-04-12T01:30:57;8.70;99.90
52669;DHT22;59898;52.786;6.892;2023-04-12T01:34:20;8.70;99.90
52669;DHT22;59898;52.786;6.892;2023-04-12T01:37:41;8.80;99.90
52669;DHT22;59898;52.786;6.892;2023-04-12T01:41:04;8.80;99.90
52669;DHT22;59898;52.786;6.892;2023-04-12T01:44:25;8.80;99.90
52669;DHT22;59898;52.786;6.892;2023-04-12T01:47:45;8.80;99.90
52669;DHT22;59898;52.786;6.892;2023-04-12T01:51:39;8.80;99.90
52669;DHT22;59898;52.786;6.892;2023-04-12T01:55:05;8.90;99.90
52669;DHT22;59898;52.786;6.892;2023-04-12T01:58:27;8.90;99.90
52669;DHT22;59898;52.786;6.892;2023-04-12T02:01:49;8.90;99.90
52669;DHT22;59898;52.786;6.892;2023-04-12T02:05:11;8.90;99.90
52669;DHT22;59898;52.786;6.892;2023-04-12T02:08:32;9.00;99.90
52669;DHT22;59898;52.786;6.892;2023-04-12T02:11:53;9.00;99.90
52669;DHT22;59898;52.786;6.892;2023-04-12T02:15:13;9.00;99.90
52669;DHT22;59898;52.786;6.892;2023-04-12T02:18:35;9.00;99.90
52669;DHT22;59898;52.786;6.892;2023-04-12T02:21:56;9.00;99.90
52669;DHT22;59898;52.786;6.892;2023-04-12T02:25:17;9.00;99.90
52669;DHT22;59898;52.786;6.892;2023-04-12T02:28:38;9.00;99.90
52669;DHT22;59898;52.786;6.892;2023-04-12T02:31:59;9.00;99.90
52669;DHT22;59898;52.786;6.892;2023-04-12T02:35:19;9.00;99.90
52669;DHT22;59898;52.786;6.892;2023-04-12T02:38:40;9.00;99.90
52669;DHT22;59898;52.786;6.892;2023-04-12T02:42:01;8.90;99.90
52669;DHT22;59898;52.786;6.892;2023-04-12T02:45:21;9.00;99.90
52669;DHT22;59898;52.786;6.892;2023-04-12T02:48:42;9.00;99.90
52669;DHT22;59898;52.786;6.892;2023-04-12T02:52:03;9.10;99.90
52669;DHT22;59898;52.786;6.892;2023-04-12T02:55:24;9.10;99.90
52669;DHT22;59898;52.786;6.892;2023-04-12T02:58:45;9.00;99.90
52669;DHT22;59898;52.786;6.892;2023-04-12T03:02:05;9.00;99.90
52669;DHT22;59898;52.786;6.892;2023-04-12T03:05:26;9.10;99.90
52669;DHT22;59898;52.786;6.892;2023-04-12T03:08:47;9.10;99.90
52669;DHT22;59898;52.786;6.892;2023-04-12T03:12:07;9.10;99.90
52669;DHT22;59898;52.786;6.892;2023-04-12T03:15:28;9.00;99.90
52669;DHT22;59898;52.786;6.892;2023-04-12T03:18:49;9.00;99.90
52669;DHT22;59898;52.786;6.892;2023-04-12T03:22:11;8.90;99.90
52669;DHT22;59898;52.786;6.892;2023-04-12T03:25:31;8.90;99.90
52669;DHT22;59898;52.786;6.892;2023-04-12T03:29:02;8.80;99.90
52669;DHT22;59898;52.786;6.892;2023-04-12T03:32:27;8.90;99.90
52669;DHT22;59898;52.786;6.892;2023-04-12T03:35:48;8.80;99.90
52669;DHT22;59898;52.786;6.892;2023-04-12T03:39:09;8.80;99.90
52669;DHT22;59898;52.786;6.892;2023-04-12T03:42:29;8.80;99.90
52669;DHT22;59898;52.786;6.892;2023-04-12T03:45:50;8.80;99.90
52669;DHT22;59898;52.786;6.892;2023-04-12T03:49:11;8.80;99.90
52669;DHT22;59898;52.786;6.892;2023-04-12T03:52:32;8.80;99.90
52669;DHT22;59898;52.786;6.892;2023-04-12T03:55:53;8.80;99.90
52669;DHT22;59898;52.786;6.892;2023-04-12T03:59:14;8.80;99.90
52669;DHT22;59898;52.786;6.892;2023-04-12T04:02:35;8.80;99.90
52669;DHT22;59898;52.786;6.892;2023-04-12T04:05:56;8.70;99.90
52669;DHT22;59898;52.786;6.892;2023-04-12T04:09:17;8.70;99.90
52669;DHT22;59898;52.786;6.892;2023-04-12T04:12:37;8.70;99.90
52669;DHT22;59898;52.786;6.892;2023-04-12T04:16:01;8.70;99.90
52669;DHT22;59898;52.786;6.892;2023-04-12T04:19:23;8.70;99.90
52669;DHT22;59898;52.786;6.892;2023-04-12T04:22:44;8.70;99.90
52669;DHT22;59898;52.786;6.892;2023-04-12T04:26:08;8.70;99.90
52669;DHT22;59898;52.786;6.892;2023-04-12T04:29:31;8.70;99.90
52669;DHT22;59898;52.786;6.892;2023-04-12T04:32:53;8.70;99.90
52669;DHT22;59898;52.786;6.892;2023-04-12T04:36:14;8.70;99.90
52669;DHT22;59898;52.786;6.892;2023-04-12T04:39:35;8.70;99.90
52669;DHT22;59898;52.786;6.892;2023-04-12T04:42:55;8.60;99.90
52669;DHT22;59898;52.786;6.892;2023-04-12T04:46:17;8.60;99.90
52669;DHT22;59898;52.786;6.892;2023-04-12T04:49:40;8.60;99.90
52669;DHT22;59898;52.786;6.892;2023-04-12T04:53:02;8.60;99.90
52669;DHT22;59898;52.786;6.892;2023-04-12T04:56:23;8.50;99.90
52669;DHT22;59898;52.786;6.892;2023-04-12T04:59:44;8.60;99.90
52669;DHT22;59898;52.786;6.892;2023-04-12T05:03:05;8.50;99.90
52669;DHT22;59898;52.786;6.892;2023-04-12T05:06:25;8.50;99.90
52669;DHT22;59898;52.786;6.892;2023-04-12T05:09:46;8.40;99.90
52669;DHT22;59898;52.786;6.892;2023-04-12T05:13:07;8.40;99.90
52669;DHT22;59898;52.786;6.892;2023-04-12T05:16:29;8.50;99.90
52669;DHT22;59898;52.786;6.892;2023-04-12T05:19:49;8.40;99.90
52669;DHT22;59898;52.786;6.892;2023-04-12T05:23:10;8.30;99.90
52669;DHT22;59898;52.786;6.892;2023-04-12T05:26:31;8.30;99.90
52669;DHT22;59898;52.786;6.892;2023-04-12T05:29:53;8.30;99.90
52669;DHT22;59898;52.786;6.892;2023-04-12T05:33:15;8.30;99.90
52669;DHT22;59898;52.786;6.892;2023-04-12T05:36:36;8.20;99.90
52669;DHT22;59898;52.786;6.892;2023-04-12T05:39:57;8.20;99.90
52669;DHT22;59898;52.786;6.892;2023-04-12T05:43:17;8.20;99.90
52669;DHT22;59898;52.786;6.892;2023-04-12T05:46:38;8.20;99.90
52669;DHT22;59898;52.786;6.892;2023-04-12T05:49:59;8.10;99.90
52669;DHT22;59898;52.786;6.892;2023-04-12T05:53:20;8.10;99.90
52669;DHT22;59898;52.786;6.892;2023-04-12T05:56:41;8.00;99.90
52669;DHT22;59898;52.786;6.892;2023-04-12T06:00:02;8.10;99.90
52669;DHT22;59898;52.786;6.892;2023-04-12T06:03:27;8.00;99.90
52669;DHT22;59898;52.786;6.892;2023-04-12T06:06:49;8.00;99.90
52669;DHT22;59898;52.786;6.892;2023-04-12T06:10:10;8.00;99.90
52669;DHT22;59898;52.786;6.892;2023-04-12T06:13:32;8.00;99.90
52669;DHT22;59898;52.786;6.892;2023-04-12T06:16:52;8.00;99.90
52669;DHT22;59898;52.786;6.892;2023-04-12T06:20:13;7.90;99.90
52669;DHT22;59898;52.786;6.892;2023-04-12T06:23:34;7.90;99.90
52669;DHT22;59898;52.786;6.892;2023-04-12T06:26:56;8.00;99.90
52669;DHT22;59898;52.786;6.892;2023-04-12T06:30:17;8.00;99.90
52669;DHT22;59898;52.786;6.892;2023-04-12T06:33:38;8.00;99.90
52669;DHT22;59898;52.786;6.892;2023-04-12T06:36:59;7.90;99.90
52669;DHT22;59898;52.786;6.892;2023-04-12T06:40:20;7.90;99.90
52669;DHT22;59898;52.786;6.892;2023-04-12T06:43:41;7.90;99.90
52669;DHT22;59898;52.786;6.892;2023-04-12T06:47:02;7.90;99.90
52669;DHT22;59898;52.786;6.892;2023-04-12T06:50:24;7.80;99.90
52669;DHT22;59898;52.786;6.892;2023-04-12T06:53:45;7.90;99.90
52669;DHT22;59898;52.786;6.892;2023-04-12T06:57:09;7.80;99.90
52669;DHT22;59898;52.786;6.892;2023-04-12T07:00:30;7.80;99.90
52669;DHT22;59898;52.786;6.892;2023-04-12T07:03:51;7.80;99.90
52669;DHT22;59898;52.786;6.892;2023-04-12T07:07:12;7.80;99.90
52669;DHT22;59898;52.786;6.892;2023-04-12T07:10:32;7.80;99.90
52669;DHT22;59898;52.786;6.892;2023-04-12T07:13:55;7.80;99.90
52669;DHT22;59898;52.786;6.892;2023-04-12T07:17:18;7.80;99.90
52669;DHT22;59898;52.786;6.892;2023-04-12T07:20:40;7.80;99.90
52669;DHT22;59898;52.786;6.892;2023-04-12T07:24:01;7.80;99.90
52669;DHT22;59898;52.786;6.892;2023-04-12T07:27:21;7.80;99.90
52669;DHT22;59898;52.786;6.892;2023-04-12T07:30:42;7.80;99.90
52669;DHT22;59898;52.786;6.892;2023-04-12T07:34:03;7.80;99.90
52669;DHT22;59898;52.786;6.892;2023-04-12T07:37:23;7.80;99.90
52669;DHT22;59898;52.786;6.892;2023-04-12T07:40:44;7.80;99.90
52669;DHT22;59898;52.786;6.892;2023-04-12T07:44:05;7.80;99.90
52669;DHT22;59898;52.786;6.892;2023-04-12T07:47:26;7.80;99.90
52669;DHT22;59898;52.786;6.892;2023-04-12T07:50:46;7.80;99.90
52669;DHT22;59898;52.786;6.892;2023-04-12T07:54:07;7.80;99.90
52669;DHT22;59898;52.786;6.892;2023-04-12T07:57:28;7.80;99.90
52669;DHT22;59898;52.786;6.892;2023-04-12T08:00:49;7.80;99.90
52669;DHT22;59898;52.786;6.892;2023-04-12T08:04:10;7.80;99.90
52669;DHT22;59898;52.786;6.892;2023-04-12T08:07:30;7.80;99.90
52669;DHT22;59898;52.786;6.892;2023-04-12T08:10:51;7.80;99.90
52669;DHT22;59898;52.786;6.892;2023-04-12T08:14:12;7.80;99.90
52669;DHT22;59898;52.786;6.892;2023-04-12T08:17:33;7.90;99.90
52669;DHT22;59898;52.786;6.892;2023-04-12T08:20:57;7.90;99.90
52669;DHT22;59898;52.786;6.892;2023-04-12T08:24:17;7.90;99.90
52669;DHT22;59898;52.786;6.892;2023-04-12T08:27:41;7.90;99.90
52669;DHT22;59898;52.786;6.892;2023-04-12T08:31:02;7.90;99.90
52669;DHT22;59898;52.786;6.892;2023-04-12T08:34:23;8.00;99.90
52669;DHT22;59898;52.786;6.892;2023-04-12T08:37:44;8.00;99.90
52669;DHT22;59898;52.786;6.892;2023-04-12T08:41:05;7.90;99.90
52669;DHT22;59898;52.786;6.892;2023-04-12T08:44:52;7.90;99.90
52669;DHT22;59898;52.786;6.892;2023-04-12T08:48:13;8.10;99.90
52669;DHT22;59898;52.786;6.892;2023-04-12T08:51:35;8.10;99.90
52669;DHT22;59898;52.786;6.892;2023-04-12T08:54:57;8.10;99.90
52669;DHT22;59898;52.786;6.892;2023-04-12T08:58:18;8.20;99.90
52669;DHT22;59898;52.786;6.892;2023-04-12T09:01:43;8.20;99.90
52669;DHT22;59898;52.786;6.892;2023-04-12T09:05:04;8.20;99.90
52669;DHT22;59898;52.786;6.892;2023-04-12T09:08:27;8.20;99.90
52669;DHT22;59898;52.786;6.892;2023-04-12T09:11:47;8.30;99.90
52669;DHT22;59898;52.786;6.892;2023-04-12T09:15:10;8.20;99.90
52669;DHT22;59898;52.786;6.892;2023-04-12T09:18:47;8.20;99.90
52669;DHT22;59898;52.786;6.892;2023-04-12T09:22:07;8.30;99.90
52669;DHT22;59898;52.786;6.892;2023-04-12T09:25:35;8.30;99.90
52669;DHT22;59898;52.786;6.892;2023-04-12T09:28:56;8.30;99.90
52669;DHT22;59898;52.786;6.892;2023-04-12T09:32:25;8.30;99.90
52669;DHT22;59898;52.786;6.892;2023-04-12T09:35:47;8.30;99.90
52669;DHT22;59898;52.786;6.892;2023-04-12T09:39:08;8.40;99.90
52669;DHT22;59898;52.786;6.892;2023-04-12T09:42:29;8.40;99.90
52669;DHT22;59898;52.786;6.892;2023-04-12T09:45:50;8.40;99.90
52669;DHT22;59898;52.786;6.892;2023-04-12T09:49:11;8.40;99.90
52669;DHT22;59898;52.786;6.892;2023-04-12T09:52:37;8.40;99.90
52669;DHT22;59898;52.786;6.892;2023-04-12T09:56:00;8.50;99.90
52669;DHT22;59898;52.786;6.892;2023-04-12T09:59:21;8.50;99.90
52669;DHT22;59898;52.786;6.892;2023-04-12T10:02:45;8.60;99.90
52669;DHT22;59898;52.786;6.892;2023-04-12T10:06:06;8.70;99.90
52669;DHT22;59898;52.786;6.892;2023-04-12T10:09:28;8.70;99.90
52669;DHT22;59898;52.786;6.892;2023-04-12T10:12:49;8.70;99.90
52669;DHT22;59898;52.786;6.892;2023-04-12T10:16:10;8.80;99.90
52669;DHT22;59898;52.786;6.892;2023-04-12T10:19:33;8.80;99.90
52669;DHT22;59898;52.786;6.892;2023-04-12T10:22:55;8.90;99.90
52669;DHT22;59898;52.786;6.892;2023-04-12T10:26:17;9.10;99.90
52669;DHT22;59898;52.786;6.892;2023-04-12T10:29:38;9.10;99.90
52669;DHT22;59898;52.786;6.892;2023-04-12T10:36:51;9.40;99.90
52669;DHT22;59898;52.786;6.892;2023-04-12T10:40:16;9.50;99.90
52669;DHT22;59898;52.786;6.892;2023-04-12T10:43:39;9.70;99.90
52669;DHT22;59898;52.786;6.892;2023-04-12T10:47:00;9.90;99.90
52669;DHT22;59898;52.786;6.892;2023-04-12T10:50:29;9.90;99.90
52669;DHT22;59898;52.786;6.892;2023-04-12T10:53:51;9.90;99.90
52669;DHT22;59898;52.786;6.892;2023-04-12T10:57:39;10.00;99.90
52669;DHT22;59898;52.786;6.892;2023-04-12T11:04:20;10.30;99.90
52669;DHT22;59898;52.786;6.892;2023-04-12T11:07:42;10.50;99.90
52669;DHT22;59898;52.786;6.892;2023-04-12T11:11:18;10.60;99.90
52669;DHT22;59898;52.786;6.892;2023-04-12T11:14:44;10.80;99.90
52669;DHT22;59898;52.786;6.892;2023-04-12T11:18:06;11.00;99.90
52669;DHT22;59898;52.786;6.892;2023-04-12T11:21:27;11.20;99.90
52669;DHT22;59898;52.786;6.892;2023-04-12T11:24:55;11.50;99.90
52669;DHT22;59898;52.786;6.892;2023-04-12T11:28:16;11.90;99.90
52669;DHT22;59898;52.786;6.892;2023-04-12T11:31:38;12.20;99.90
52669;DHT22;59898;52.786;6.892;2023-04-12T11:34:58;12.20;99.90
52669;DHT22;59898;52.786;6.892;2023-04-12T11:38:20;12.30;99.90
52669;DHT22;59898;52.786;6.892;2023-04-12T11:41:47;12.30;99.90
52669;DHT22;59898;52.786;6.892;2023-04-12T11:45:08;12.40;99.90
52669;DHT22;59898;52.786;6.892;2023-04-12T11:48:31;12.70;99.90
52669;DHT22;59898;52.786;6.892;2023-04-12T11:52:01;13.10;99.90
52669;DHT22;59898;52.786;6.892;2023-04-12T11:55:22;13.20;99.90
52669;DHT22;59898;52.786;6.892;2023-04-12T11:58:45;13.30;99.90
52669;DHT22;59898;52.786;6.892;2023-04-12T12:02:07;13.40;99.90
52669;DHT22;59898;52.786;6.892;2023-04-12T12:05:29;13.50;99.90
52669;DHT22;59898;52.786;6.892;2023-04-12T12:08:50;13.80;99.90
52669;DHT22;59898;52.786;6.892;2023-04-12T12:12:12;13.90;99.90
52669;DHT22;59898;52.786;6.892;2023-04-12T12:15:33;14.00;99.90
52669;DHT22;59898;52.786;6.892;2023-04-12T12:18:54;14.10;99.90
52669;DHT22;59898;52.786;6.892;2023-04-12T12:22:20;14.20;99.90
52669;DHT22;59898;52.786;6.892;2023-04-12T12:25:44;14.40;99.90
52669;DHT22;59898;52.786;6.892;2023-04-12T12:29:06;14.40;99.90
52669;DHT22;59898;52.786;6.892;2023-04-12T12:32:36;14.50;99.90
52669;DHT22;59898;52.786;6.892;2023-04-12T12:35:57;14.70;99.90
52669;DHT22;59898;52.786;6.892;2023-04-12T12:39:18;14.70;99.90
52669;DHT22;59898;52.786;6.892;2023-04-12T12:42:45;14.70;99.90
52669;DHT22;59898;52.786;6.892;2023-04-12T12:46:06;14.90;99.90
52669;DHT22;59898;52.786;6.892;2023-04-12T12:49:27;14.90;99.90
52669;DHT22;59898;52.786;6.892;2023-04-12T12:52:48;14.70;99.90
52669;DHT22;59898;52.786;6.892;2023-04-12T12:56:10;14.80;99.90
52669;DHT22;59898;52.786;6.892;2023-04-12T12:59:31;14.80;99.90
52669;DHT22;59898;52.786;6.892;2023-04-12T13:02:51;14.80;99.90
52669;DHT22;59898;52.786;6.892;2023-04-12T13:06:12;14.60;99.90
52669;DHT22;59898;52.786;6.892;2023-04-12T13:09:33;14.40;99.90
52669;DHT22;59898;52.786;6.892;2023-04-12T13:12:54;14.20;99.90
52669;DHT22;59898;52.786;6.892;2023-04-12T13:16:15;14.00;99.90
52669;DHT22;59898;52.786;6.892;2023-04-12T13:19:36;13.90;99.90
52669;DHT22;59898;52.786;6.892;2023-04-12T13:22:56;13.80;99.90
52669;DHT22;59898;52.786;6.892;2023-04-12T13:26:17;13.80;99.90
52669;DHT22;59898;52.786;6.892;2023-04-12T13:29:38;13.70;99.90
52669;DHT22;59898;52.786;6.892;2023-04-12T13:32:58;13.60;99.90
52669;DHT22;59898;52.786;6.892;2023-04-12T13:36:19;13.40;99.90
52669;DHT22;59898;52.786;6.892;2023-04-12T13:39:40;13.30;99.90
52669;DHT22;59898;52.786;6.892;2023-04-12T13:43:01;13.20;99.90
52669;DHT22;59898;52.786;6.892;2023-04-12T13:46:21;13.00;99.90
52669;DHT22;59898;52.786;6.892;2023-04-12T13:49:42;12.70;99.90
52669;DHT22;59898;52.786;6.892;2023-04-12T13:53:03;12.60;99.90
52669;DHT22;59898;52.786;6.892;2023-04-12T13:56:24;12.50;99.90
52669;DHT22;59898;52.786;6.892;2023-04-12T13:59:45;12.50;99.90
52669;DHT22;59898;52.786;6.892;2023-04-12T14:03:05;12.40;99.90
52669;DHT22;59898;52.786;6.892;2023-04-12T14:06:27;12.30;99.90
52669;DHT22;59898;52.786;6.892;2023-04-12T14:09:49;12.20;99.90
52669;DHT22;59898;52.786;6.892;2023-04-12T14:13:10;12.20;99.90
52669;DHT22;59898;52.786;6.892;2023-04-12T14:16:31;12.20;99.90
52669;DHT22;59898;52.786;6.892;2023-04-12T14:19:51;12.30;99.90
52669;DHT22;59898;52.786;6.892;2023-04-12T14:23:12;12.20;99.90
52669;DHT22;59898;52.786;6.892;2023-04-12T14:26:33;12.20;99.90
52669;DHT22;59898;52.786;6.892;2023-04-12T14:29:54;11.90;99.90
52669;DHT22;59898;52.786;6.892;2023-04-12T14:33:15;11.70;99.90
52669;DHT22;59898;52.786;6.892;2023-04-12T14:36:36;11.50;99.90
52669;DHT22;59898;52.786;6.892;2023-04-12T14:39:57;11.30;99.90
52669;DHT22;59898;52.786;6.892;2023-04-12T14:43:18;11.30;99.90
52669;DHT22;59898;52.786;6.892;2023-04-12T14:46:38;11.30;99.90
52669;DHT22;59898;52.786;6.892;2023-04-12T14:49:59;11.40;99.90
52669;DHT22;59898;52.786;6.892;2023-04-12T14:53:20;11.50;99.90
52669;DHT22;59898;52.786;6.892;2023-04-12T14:56:41;11.60;99.90
52669;DHT22;59898;52.786;6.892;2023-04-12T15:00:02;11.70;99.90
52669;DHT22;59898;52.786;6.892;2023-04-12T15:03:24;11.90;99.90
52669;DHT22;59898;52.786;6.892;2023-04-12T15:06:45;12.10;99.90
52669;DHT22;59898;52.786;6.892;2023-04-12T15:10:07;12.40;99.90
52669;DHT22;59898;52.786;6.892;2023-04-12T15:13:27;12.60;99.90
52669;DHT22;59898;52.786;6.892;2023-04-12T15:16:48;12.50;99.90
52669;DHT22;59898;52.786;6.892;2023-04-12T15:20:09;12.40;99.90
52669;DHT22;59898;52.786;6.892;2023-04-12T15:23:35;12.40;99.90
52669;DHT22;59898;52.786;6.892;2023-04-12T15:26:56;12.30;99.90
52669;DHT22;59898;52.786;6.892;2023-04-12T15:30:16;12.30;99.90
52669;DHT22;59898;52.786;6.892;2023-04-12T15:33:37;12.20;99.90
52669;DHT22;59898;52.786;6.892;2023-04-12T15:36:58;12.20;99.90
52669;DHT22;59898;52.786;6.892;2023-04-12T15:40:19;12.10;99.90
52669;DHT22;59898;52.786;6.892;2023-04-12T15:43:40;12.10;99.90
52669;DHT22;59898;52.786;6.892;2023-04-12T15:47:04;12.10;99.90
52669;DHT22;59898;52.786;6.892;2023-04-12T15:50:25;12.10;99.90
52669;DHT22;59898;52.786;6.892;2023-04-12T15:53:47;12.10;99.90
52669;DHT22;59898;52.786;6.892;2023-04-12T15:57:07;12.10;99.90
52669;DHT22;59898;52.786;6.892;2023-04-12T16:00:31;12.10;99.90
52669;DHT22;59898;52.786;6.892;2023-04-12T16:03:52;12.10;99.90
52669;DHT22;59898;52.786;6.892;2023-04-12T16:07:14;12.00;99.90
52669;DHT22;59898;52.786;6.892;2023-04-12T16:10:35;11.90;99.90
52669;DHT22;59898;52.786;6.892;2023-04-12T16:13:57;11.80;99.90
52669;DHT22;59898;52.786;6.892;2023-04-12T16:17:18;11.70;99.90
52669;DHT22;59898;52.786;6.892;2023-04-12T16:20:40;11.60;99.90
52669;DHT22;59898;52.786;6.892;2023-04-12T16:24:01;11.50;99.90
52669;DHT22;59898;52.786;6.892;2023-04-12T16:27:21;11.30;99.90
52669;DHT22;59898;52.786;6.892;2023-04-12T16:30:42;11.30;99.90
52669;DHT22;59898;52.786;6.892;2023-04-12T16:34:03;11.30;99.90
52669;DHT22;59898;52.786;6.892;2023-04-12T16:37:27;11.30;99.90
52669;DHT22;59898;52.786;6.892;2023-04-12T16:40:47;11.30;99.90
52669;DHT22;59898;52.786;6.892;2023-04-12T16:44:08;11.30;99.90
52669;DHT22;59898;52.786;6.892;2023-04-12T16:47:29;11.20;99.90
52669;DHT22;59898;52.786;6.892;2023-04-12T16:50:50;11.10;99.90
52669;DHT22;59898;52.786;6.892;2023-04-12T16:54:10;10.90;99.90
52669;DHT22;59898;52.786;6.892;2023-04-12T16:57:31;10.90;99.90
52669;DHT22;59898;52.786;6.892;2023-04-12T17:00:52;10.80;99.90
52669;DHT22;59898;52.786;6.892;2023-04-12T17:04:13;10.60;99.90
52669;DHT22;59898;52.786;6.892;2023-04-12T17:07:34;10.40;99.90
52669;DHT22;59898;52.786;6.892;2023-04-12T17:10:54;10.30;99.90
52669;DHT22;59898;52.786;6.892;2023-04-12T17:14:15;10.20;99.90
52669;DHT22;59898;52.786;6.892;2023-04-12T17:17:36;10.10;99.90
52669;DHT22;59898;52.786;6.892;2023-04-12T17:20:56;10.00;99.90
52669;DHT22;59898;52.786;6.892;2023-04-12T17:24:18;10.00;99.90
52669;DHT22;59898;52.786;6.892;2023-04-12T17:27:39;9.90;99.90
52669;DHT22;59898;52.786;6.892;2023-04-12T17:31:00;9.90;99.90
52669;DHT22;59898;52.786;6.892;2023-04-12T17:34:22;9.80;99.90
52669;DHT22;59898;52.786;6.892;2023-04-12T17:37:43;9.70;99.90
52669;DHT22;59898;52.786;6.892;2023-04-12T17:41:06;9.60;99.90
52669;DHT22;59898;52.786;6.892;2023-04-12T17:44:28;9.60;99.90
52669;DHT22;59898;52.786;6.892;2023-04-12T17:47:49;9.50;99.90
52669;DHT22;59898;52.786;6.892;2023-04-12T17:51:10;9.50;99.90
52669;DHT22;59898;52.786;6.892;2023-04-12T17:54:30;9.50;99.90
52669;DHT22;59898;52.786;6.892;2023-04-12T17:57:51;9.60;99.90
52669;DHT22;59898;52.786;6.892;2023-04-12T18:01:12;9.70;99.90
52669;DHT22;59898;52.786;6.892;2023-04-12T18:04:33;9.80;99.90
52669;DHT22;59898;52.786;6.892;2023-04-12T18:07:53;9.80;99.90
52669;DHT22;59898;52.786;6.892;2023-04-12T18:11:16;9.90;99.90
52669;DHT22;59898;52.786;6.892;2023-04-12T18:14:37;9.90;99.90
52669;DHT22;59898;52.786;6.892;2023-04-12T18:18:00;9.90;99.90
52669;DHT22;59898;52.786;6.892;2023-04-12T18:21:20;10.00;99.90
52669;DHT22;59898;52.786;6.892;2023-04-12T18:24:41;10.00;99.90
52669;DHT22;59898;52.786;6.892;2023-04-12T18:28:02;9.90;99.90
52669;DHT22;59898;52.786;6.892;2023-04-12T18:31:23;9.80;99.90
52669;DHT22;59898;52.786;6.892;2023-04-12T18:34:44;9.70;99.90
52669;DHT22;59898;52.786;6.892;2023-04-12T18:38:05;9.60;99.90
52669;DHT22;59898;52.786;6.892;2023-04-12T18:41:25;9.50;99.90
52669;DHT22;59898;52.786;6.892;2023-04-12T18:44:46;9.50;99.90
52669;DHT22;59898;52.786;6.892;2023-04-12T18:48:07;9.50;99.90
52669;DHT22;59898;52.786;6.892;2023-04-12T18:51:28;9.40;99.90
52669;DHT22;59898;52.786;6.892;2023-04-12T18:54:48;9.30;99.90
52669;DHT22;59898;52.786;6.892;2023-04-12T18:58:09;9.30;99.90
52669;DHT22;59898;52.786;6.892;2023-04-12T19:01:33;9.20;99.90
52669;DHT22;59898;52.786;6.892;2023-04-12T19:04:56;9.10;99.90
52669;DHT22;59898;52.786;6.892;2023-04-12T19:08:17;9.10;99.90
52669;DHT22;59898;52.786;6.892;2023-04-12T19:11:38;9.00;99.90
52669;DHT22;59898;52.786;6.892;2023-04-12T19:14:59;8.90;99.90
52669;DHT22;59898;52.786;6.892;2023-04-12T19:18:20;8.80;99.90
52669;DHT22;59898;52.786;6.892;2023-04-12T19:21:41;8.70;99.90
52669;DHT22;59898;52.786;6.892;2023-04-12T19:25:02;8.60;99.90
52669;DHT22;59898;52.786;6.892;2023-04-12T19:28:23;8.50;99.90
52669;DHT22;59898;52.786;6.892;2023-04-12T19:31:44;8.40;99.90
52669;DHT22;59898;52.786;6.892;2023-04-12T19:35:07;8.30;99.90
52669;DHT22;59898;52.786;6.892;2023-04-12T19:38:29;8.20;99.90
52669;DHT22;59898;52.786;6.892;2023-04-12T19:41:50;8.10;99.90
52669;DHT22;59898;52.786;6.892;2023-04-12T19:45:11;8.00;99.90
52669;DHT22;59898;52.786;6.892;2023-04-12T19:48:31;8.00;99.90
52669;DHT22;59898;52.786;6.892;2023-04-12T19:51:52;7.90;99.90
52669;DHT22;59898;52.786;6.892;2023-04-12T19:55:13;7.80;99.90
52669;DHT22;59898;52.786;6.892;2023-04-12T19:58:35;7.70;99.90
52669;DHT22;59898;52.786;6.892;2023-04-12T20:01:56;7.70;99.90
52669;DHT22;59898;52.786;6.892;2023-04-12T20:05:22;7.60;99.90
52669;DHT22;59898;52.786;6.892;2023-04-12T20:08:43;7.50;99.90
52669;DHT22;59898;52.786;6.892;2023-04-12T20:12:04;7.50;99.90
52669;DHT22;59898;52.786;6.892;2023-04-12T20:15:26;7.40;99.90
52669;DHT22;59898;52.786;6.892;2023-04-12T20:18:47;7.30;99.90
52669;DHT22;59898;52.786;6.892;2023-04-12T20:22:07;7.30;99.90
52669;DHT22;59898;52.786;6.892;2023-04-12T20:25:28;7.20;99.90
52669;DHT22;59898;52.786;6.892;2023-04-12T20:28:49;7.10;99.90
52669;DHT22;59898;52.786;6.892;2023-04-12T20:32:12;7.10;99.90
52669;DHT22;59898;52.786;6.892;2023-04-12T20:35:33;7.10;99.90
52669;DHT22;59898;52.786;6.892;2023-04-12T20:38:54;7.00;99.90
52669;DHT22;59898;52.786;6.892;2023-04-12T20:42:15;6.90;99.90
52669;DHT22;59898;52.786;6.892;2023-04-12T20:45:39;6.90;99.90
52669;DHT22;59898;52.786;6.892;2023-04-12T20:49:00;6.80;99.90
52669;DHT22;59898;52.786;6.892;2023-04-12T20:52:21;6.70;99.90
52669;DHT22;59898;52.786;6.892;2023-04-12T20:55:42;6.70;99.90
52669;DHT22;59898;52.786;6.892;2023-04-12T20:59:03;6.70;99.90
52669;DHT22;59898;52.786;6.892;2023-04-12T21:02:24;6.70;99.90
52669;DHT22;59898;52.786;6.892;2023-04-12T21:05:45;6.70;99.90
52669;DHT22;59898;52.786;6.892;2023-04-12T21:09:09;6.70;99.90
52669;DHT22;59898;52.786;6.892;2023-04-12T21:12:30;6.60;99.90
52669;DHT22;59898;52.786;6.892;2023-04-12T21:15:52;6.60;99.90
52669;DHT22;59898;52.786;6.892;2023-04-12T21:19:16;6.60;99.90
52669;DHT22;59898;52.786;6.892;2023-04-12T21:22:39;6.50;99.90
52669;DHT22;59898;52.786;6.892;2023-04-12T21:26:00;6.50;99.90
52669;DHT22;59898;52.786;6.892;2023-04-12T21:29:22;6.40;99.90
52669;DHT22;59898;52.786;6.892;2023-04-12T21:32:43;6.40;99.90
52669;DHT22;59898;52.786;6.892;2023-04-12T21:36:04;6.40;99.90
52669;DHT22;59898;52.786;6.892;2023-04-12T21:39:25;6.30;99.90
52669;DHT22;59898;52.786;6.892;2023-04-12T21:42:46;6.40;99.90
52669;DHT22;59898;52.786;6.892;2023-04-12T21:46:07;6.30;99.90